sensor_id;sensor_type;location;lat;lon;timestamp;P1;durP1;ratioP1;P2;durP2;ratioP2
826;SDS011;395;48.132;11.608;2023-04-15T00:00:48;3.73;;;3.10;;
826;SDS011;395;48.132;11.608;2023-04-15T00:03:16;3.33;;;3.03;;
826;SDS011;395;48.132;11.608;2023-04-15T00:05:41;5.33;;;3.57;;
826;SDS011;395;48.132;11.608;2023-04-15T00:08:07;3.70;;;2.80;;
826;SDS011;395;48.132;11.608;2023-04-15T00:10:33;4.40;;;3.10;;
826;SDS011;395;48.132;11.608;2023-04-15T00:12:58;4.10;;;3.17;;
826;SDS011;395;48.132;11.608;2023-04-15T00:15:24;3.30;;;2.90;;
826;SDS011;395;48.132;11.608;2023-04-15T00:17:51;3.60;;;2.80;;
826;SDS011;395;48.132;11.608;2023-04-15T00:20:17;4.47;;;3.17;;
826;SDS011;395;48.132;11.608;2023-04-15T00:22:42;4.40;;;3.47;;
826;SDS011;395;48.132;11.608;2023-04-15T00:25:08;3.90;;;2.70;;
826;SDS011;395;48.132;11.608;2023-04-15T00:27:33;4.03;;;2.83;;
826;SDS011;395;48.132;11.608;2023-04-15T00:30:00;4.80;;;3.20;;
826;SDS011;395;48.132;11.608;2023-04-15T00:32:26;3.27;;;2.60;;
826;SDS011;395;48.132;11.608;2023-04-15T00:34:51;4.63;;;2.53;;
826;SDS011;395;48.132;11.608;2023-04-15T00:37:17;4.70;;;3.10;;
826;SDS011;395;48.132;11.608;2023-04-15T00:39:43;4.90;;;3.37;;
826;SDS011;395;48.132;11.608;2023-04-15T00:42:09;6.37;;;3.07;;
826;SDS011;395;48.132;11.608;2023-04-15T00:44:35;6.50;;;2.80;;
826;SDS011;395;48.132;11.608;2023-04-15T00:47:00;5.33;;;3.83;;
826;SDS011;395;48.132;11.608;2023-04-15T00:49:27;4.00;;;2.73;;
826;SDS011;395;48.132;11.608;2023-04-15T00:51:53;4.43;;;3.37;;
826;SDS011;395;48.132;11.608;2023-04-15T00:54:19;5.57;;;3.50;;
826;SDS011;395;48.132;11.608;2023-04-15T00:56:45;8.20;;;3.47;;
826;SDS011;395;48.132;11.608;2023-04-15T00:59:13;7.57;;;3.70;;
826;SDS011;395;48.132;11.608;2023-04-15T01:01:39;7.60;;;4.05;;
826;SDS011;395;48.132;11.608;2023-04-15T01:04:05;6.43;;;3.60;;
826;SDS011;395;48.132;11.608;2023-04-15T01:06:34;4.60;;;3.80;;
826;SDS011;395;48.132;11.608;2023-04-15T01:08:59;4.43;;;3.23;;
826;SDS011;395;48.132;11.608;2023-04-15T01:11:25;7.30;;;3.30;;
826;SDS011;395;48.132;11.608;2023-04-15T01:13:52;5.27;;;3.60;;
826;SDS011;395;48.132;11.608;2023-04-15T01:16:21;5.63;;;3.60;;
826;SDS011;395;48.132;11.608;2023-04-15T01:18:47;5.63;;;3.87;;
826;SDS011;395;48.132;11.608;2023-04-15T01:21:13;6.13;;;3.60;;
826;SDS011;395;48.132;11.608;2023-04-15T01:23:38;4.60;;;3.43;;
826;SDS011;395;48.132;11.608;2023-04-15T01:26:07;4.80;;;3.37;;
826;SDS011;395;48.132;11.608;2023-04-15T01:28:33;6.45;;;3.65;;
826;SDS011;395;48.132;11.608;2023-04-15T01:33:37;4.10;;;3.22;;
826;SDS011;395;48.132;11.608;2023-04-15T01:36:07;5.93;;;4.10;;
826;SDS011;395;48.132;11.608;2023-04-15T01:38:34;3.85;;;3.50;;
826;SDS011;395;48.132;11.608;2023-04-15T01:41:00;4.67;;;3.90;;
826;SDS011;395;48.132;11.608;2023-04-15T01:43:28;9.50;;;3.97;;
826;SDS011;395;48.132;11.608;2023-04-15T01:45:53;6.57;;;4.07;;
826;SDS011;395;48.132;11.608;2023-04-15T01:48:20;5.13;;;3.87;;
826;SDS011;395;48.132;11.608;2023-04-15T01:50:47;8.07;;;4.07;;
826;SDS011;395;48.132;11.608;2023-04-15T01:53:12;5.43;;;3.70;;
826;SDS011;395;48.132;11.608;2023-04-15T01:55:38;5.60;;;3.70;;
826;SDS011;395;48.132;11.608;2023-04-15T01:58:04;4.43;;;3.60;;
826;SDS011;395;48.132;11.608;2023-04-15T02:00:30;10.57;;;4.27;;
826;SDS011;395;48.132;11.608;2023-04-15T02:02:56;6.10;;;3.80;;
826;SDS011;395;48.132;11.608;2023-04-15T02:05:23;5.10;;;3.97;;
826;SDS011;395;48.132;11.608;2023-04-15T02:07:49;4.77;;;3.70;;
826;SDS011;395;48.132;11.608;2023-04-15T02:10:15;4.93;;;4.00;;
826;SDS011;395;48.132;11.608;2023-04-15T02:12:41;4.70;;;3.40;;
826;SDS011;395;48.132;11.608;2023-04-15T02:15:07;5.70;;;3.70;;
826;SDS011;395;48.132;11.608;2023-04-15T02:17:34;7.43;;;4.30;;
826;SDS011;395;48.132;11.608;2023-04-15T02:20:00;7.03;;;3.40;;
826;SDS011;395;48.132;11.608;2023-04-15T02:22:26;4.83;;;3.87;;
826;SDS011;395;48.132;11.608;2023-04-15T02:24:52;4.50;;;3.50;;
826;SDS011;395;48.132;11.608;2023-04-15T02:27:18;6.13;;;4.00;;
826;SDS011;395;48.132;11.608;2023-04-15T02:29:44;4.87;;;3.20;;
826;SDS011;395;48.132;11.608;2023-04-15T02:32:10;6.43;;;4.00;;
826;SDS011;395;48.132;11.608;2023-04-15T02:34:36;5.95;;;3.30;;
826;SDS011;395;48.132;11.608;2023-04-15T02:37:05;5.93;;;4.20;;
826;SDS011;395;48.132;11.608;2023-04-15T02:39:34;6.87;;;4.40;;
826;SDS011;395;48.132;11.608;2023-04-15T02:42:00;4.83;;;3.80;;
826;SDS011;395;48.132;11.608;2023-04-15T02:44:26;7.67;;;3.67;;
826;SDS011;395;48.132;11.608;2023-04-15T02:46:52;5.40;;;4.13;;
826;SDS011;395;48.132;11.608;2023-04-15T02:49:21;4.87;;;3.13;;
826;SDS011;395;48.132;11.608;2023-04-15T02:51:47;5.33;;;3.40;;
826;SDS011;395;48.132;11.608;2023-04-15T02:54:23;7.43;;;3.50;;
826;SDS011;395;48.132;11.608;2023-04-15T02:56:49;5.55;;;3.20;;
826;SDS011;395;48.132;11.608;2023-04-15T02:59:16;4.20;;;2.90;;
826;SDS011;395;48.132;11.608;2023-04-15T03:01:41;3.90;;;3.50;;
826;SDS011;395;48.132;11.608;2023-04-15T03:04:07;5.97;;;3.50;;
826;SDS011;395;48.132;11.608;2023-04-15T03:06:33;5.80;;;3.90;;
826;SDS011;395;48.132;11.608;2023-04-15T03:08:59;4.63;;;3.60;;
826;SDS011;395;48.132;11.608;2023-04-15T03:11:26;5.07;;;3.40;;
826;SDS011;395;48.132;11.608;2023-04-15T03:13:53;6.95;;;3.13;;
826;SDS011;395;48.132;11.608;2023-04-15T03:16:18;4.53;;;3.67;;
826;SDS011;395;48.132;11.608;2023-04-15T03:18:45;3.85;;;2.92;;
826;SDS011;395;48.132;11.608;2023-04-15T03:21:10;3.60;;;3.30;;
826;SDS011;395;48.132;11.608;2023-04-15T03:23:36;5.60;;;3.80;;
826;SDS011;395;48.132;11.608;2023-04-15T03:26:01;3.63;;;3.27;;
826;SDS011;395;48.132;11.608;2023-04-15T03:28:28;6.50;;;3.53;;
826;SDS011;395;48.132;11.608;2023-04-15T03:30:54;4.50;;;3.30;;
826;SDS011;395;48.132;11.608;2023-04-15T03:33:20;4.80;;;3.20;;
826;SDS011;395;48.132;11.608;2023-04-15T03:35:45;6.73;;;3.53;;
826;SDS011;395;48.132;11.608;2023-04-15T03:38:11;7.53;;;4.20;;
826;SDS011;395;48.132;11.608;2023-04-15T03:40:37;8.20;;;3.87;;
826;SDS011;395;48.132;11.608;2023-04-15T03:43:05;6.18;;;2.60;;
826;SDS011;395;48.132;11.608;2023-04-15T03:45:31;4.40;;;3.20;;
826;SDS011;395;48.132;11.608;2023-04-15T03:47:57;5.20;;;3.80;;
826;SDS011;395;48.132;11.608;2023-04-15T03:50:22;6.00;;;3.40;;
826;SDS011;395;48.132;11.608;2023-04-15T03:52:48;4.90;;;3.20;;
826;SDS011;395;48.132;11.608;2023-04-15T03:55:14;5.10;;;3.57;;
826;SDS011;395;48.132;11.608;2023-04-15T03:57:39;3.70;;;3.30;;
826;SDS011;395;48.132;11.608;2023-04-15T04:00:06;3.53;;;3.07;;
826;SDS011;395;48.132;11.608;2023-04-15T04:02:34;7.23;;;3.13;;
826;SDS011;395;48.132;11.608;2023-04-15T04:04:59;4.50;;;3.10;;
826;SDS011;395;48.132;11.608;2023-04-15T04:07:25;4.77;;;3.50;;
826;SDS011;395;48.132;11.608;2023-04-15T04:09:51;5.00;;;3.40;;
826;SDS011;395;48.132;11.608;2023-04-15T04:12:16;5.27;;;3.33;;
826;SDS011;395;48.132;11.608;2023-04-15T04:14:42;8.00;;;2.70;;
826;SDS011;395;48.132;11.608;2023-04-15T04:17:08;3.93;;;3.30;;
826;SDS011;395;48.132;11.608;2023-04-15T04:19:33;4.20;;;3.13;;
826;SDS011;395;48.132;11.608;2023-04-15T04:21:59;3.80;;;2.97;;
826;SDS011;395;48.132;11.608;2023-04-15T04:24:25;4.70;;;3.07;;
826;SDS011;395;48.132;11.608;2023-04-15T04:26:51;5.30;;;2.97;;
826;SDS011;395;48.132;11.608;2023-04-15T04:29:16;4.03;;;3.13;;
826;SDS011;395;48.132;11.608;2023-04-15T04:31:42;6.07;;;2.57;;
826;SDS011;395;48.132;11.608;2023-04-15T04:34:07;4.63;;;2.67;;
826;SDS011;395;48.132;11.608;2023-04-15T04:36:33;5.00;;;2.60;;
826;SDS011;395;48.132;11.608;2023-04-15T04:38:59;6.50;;;3.07;;
826;SDS011;395;48.132;11.608;2023-04-15T04:41:25;4.43;;;2.77;;
826;SDS011;395;48.132;11.608;2023-04-15T04:43:51;2.97;;;2.50;;
826;SDS011;395;48.132;11.608;2023-04-15T04:46:17;2.93;;;2.63;;
826;SDS011;395;48.132;11.608;2023-04-15T04:48:42;3.80;;;2.70;;
826;SDS011;395;48.132;11.608;2023-04-15T04:51:08;6.77;;;2.70;;
826;SDS011;395;48.132;11.608;2023-04-15T04:53:34;4.35;;;2.95;;
826;SDS011;395;48.132;11.608;2023-04-15T04:56:01;3.70;;;2.50;;
826;SDS011;395;48.132;11.608;2023-04-15T04:58:27;3.97;;;2.83;;
826;SDS011;395;48.132;11.608;2023-04-15T05:00:53;2.90;;;2.67;;
826;SDS011;395;48.132;11.608;2023-04-15T05:03:19;4.70;;;2.93;;
826;SDS011;395;48.132;11.608;2023-04-15T05:05:45;4.53;;;2.55;;
826;SDS011;395;48.132;11.608;2023-04-15T05:08:13;4.75;;;2.50;;
826;SDS011;395;48.132;11.608;2023-04-15T05:10:39;6.03;;;3.05;;
826;SDS011;395;48.132;11.608;2023-04-15T05:13:05;3.87;;;2.77;;
826;SDS011;395;48.132;11.608;2023-04-15T05:15:30;5.20;;;2.60;;
826;SDS011;395;48.132;11.608;2023-04-15T05:17:57;3.47;;;2.47;;
826;SDS011;395;48.132;11.608;2023-04-15T05:20:22;3.97;;;3.10;;
826;SDS011;395;48.132;11.608;2023-04-15T05:22:48;4.90;;;2.50;;
826;SDS011;395;48.132;11.608;2023-04-15T05:25:14;5.00;;;2.70;;
826;SDS011;395;48.132;11.608;2023-04-15T05:27:40;3.90;;;2.42;;
826;SDS011;395;48.132;11.608;2023-04-15T05:30:06;3.40;;;2.70;;
826;SDS011;395;48.132;11.608;2023-04-15T05:32:32;7.17;;;2.70;;
826;SDS011;395;48.132;11.608;2023-04-15T05:34:58;5.67;;;2.50;;
826;SDS011;395;48.132;11.608;2023-04-15T05:37:24;5.50;;;2.77;;
826;SDS011;395;48.132;11.608;2023-04-15T05:39:50;2.80;;;2.27;;
826;SDS011;395;48.132;11.608;2023-04-15T05:42:16;2.90;;;2.47;;
826;SDS011;395;48.132;11.608;2023-04-15T05:44:42;2.20;;;2.07;;
826;SDS011;395;48.132;11.608;2023-04-15T05:47:08;5.50;;;2.30;;
826;SDS011;395;48.132;11.608;2023-04-15T05:49:34;4.50;;;2.30;;
826;SDS011;395;48.132;11.608;2023-04-15T05:52:00;3.43;;;2.20;;
826;SDS011;395;48.132;11.608;2023-04-15T05:54:26;3.67;;;2.27;;
826;SDS011;395;48.132;11.608;2023-04-15T05:56:52;3.13;;;1.97;;
826;SDS011;395;48.132;11.608;2023-04-15T05:59:18;5.32;;;2.63;;
826;SDS011;395;48.132;11.608;2023-04-15T06:01:44;3.23;;;1.57;;
826;SDS011;395;48.132;11.608;2023-04-15T06:04:09;3.83;;;1.90;;
826;SDS011;395;48.132;11.608;2023-04-15T06:06:35;2.73;;;2.10;;
826;SDS011;395;48.132;11.608;2023-04-15T06:09:02;3.10;;;2.10;;
826;SDS011;395;48.132;11.608;2023-04-15T06:11:28;3.20;;;2.00;;
826;SDS011;395;48.132;11.608;2023-04-15T06:13:53;7.77;;;2.43;;
826;SDS011;395;48.132;11.608;2023-04-15T06:16:19;4.30;;;2.03;;
826;SDS011;395;48.132;11.608;2023-04-15T06:18:45;3.17;;;2.17;;
826;SDS011;395;48.132;11.608;2023-04-15T06:21:10;3.17;;;2.03;;
826;SDS011;395;48.132;11.608;2023-04-15T06:23:36;4.63;;;1.80;;
826;SDS011;395;48.132;11.608;2023-04-15T06:26:02;6.30;;;2.43;;
826;SDS011;395;48.132;11.608;2023-04-15T06:28:28;4.40;;;2.27;;
826;SDS011;395;48.132;11.608;2023-04-15T06:30:53;4.40;;;1.97;;
826;SDS011;395;48.132;11.608;2023-04-15T06:33:20;3.35;;;2.08;;
826;SDS011;395;48.132;11.608;2023-04-15T06:35:45;5.10;;;2.00;;
826;SDS011;395;48.132;11.608;2023-04-15T06:38:12;1.77;;;1.67;;
826;SDS011;395;48.132;11.608;2023-04-15T06:40:38;3.25;;;2.50;;
826;SDS011;395;48.132;11.608;2023-04-15T06:43:04;4.33;;;2.27;;
826;SDS011;395;48.132;11.608;2023-04-15T06:45:29;3.23;;;1.90;;
826;SDS011;395;48.132;11.608;2023-04-15T06:47:56;3.27;;;1.60;;
826;SDS011;395;48.132;11.608;2023-04-15T06:50:21;2.50;;;2.30;;
826;SDS011;395;48.132;11.608;2023-04-15T06:52:47;3.23;;;1.97;;
826;SDS011;395;48.132;11.608;2023-04-15T06:55:12;2.87;;;1.73;;
826;SDS011;395;48.132;11.608;2023-04-15T06:57:38;4.43;;;1.80;;
826;SDS011;395;48.132;11.608;2023-04-15T07:00:04;4.70;;;2.30;;
826;SDS011;395;48.132;11.608;2023-04-15T07:02:31;4.78;;;2.05;;
826;SDS011;395;48.132;11.608;2023-04-15T07:04:57;2.20;;;1.50;;
826;SDS011;395;48.132;11.608;2023-04-15T07:07:23;2.27;;;1.40;;
826;SDS011;395;48.132;11.608;2023-04-15T07:09:49;2.70;;;1.63;;
826;SDS011;395;48.132;11.608;2023-04-15T07:12:17;3.27;;;1.60;;
826;SDS011;395;48.132;11.608;2023-04-15T07:14:43;2.93;;;1.63;;
826;SDS011;395;48.132;11.608;2023-04-15T07:17:09;3.53;;;2.10;;
826;SDS011;395;48.132;11.608;2023-04-15T07:19:35;3.73;;;1.80;;
826;SDS011;395;48.132;11.608;2023-04-15T07:22:01;3.03;;;1.83;;
826;SDS011;395;48.132;11.608;2023-04-15T07:24:26;3.53;;;1.50;;
826;SDS011;395;48.132;11.608;2023-04-15T07:26:53;2.73;;;1.57;;
826;SDS011;395;48.132;11.608;2023-04-15T07:29:21;5.40;;;1.77;;
826;SDS011;395;48.132;11.608;2023-04-15T07:31:47;3.07;;;1.80;;
826;SDS011;395;48.132;11.608;2023-04-15T07:34:13;2.20;;;1.40;;
826;SDS011;395;48.132;11.608;2023-04-15T07:36:38;2.80;;;1.40;;
826;SDS011;395;48.132;11.608;2023-04-15T07:39:04;3.80;;;1.53;;
826;SDS011;395;48.132;11.608;2023-04-15T07:41:30;4.27;;;1.73;;
826;SDS011;395;48.132;11.608;2023-04-15T07:43:56;2.37;;;1.40;;
826;SDS011;395;48.132;11.608;2023-04-15T07:46:21;4.20;;;1.93;;
826;SDS011;395;48.132;11.608;2023-04-15T07:48:48;6.97;;;2.00;;
826;SDS011;395;48.132;11.608;2023-04-15T07:51:14;3.83;;;2.10;;
826;SDS011;395;48.132;11.608;2023-04-15T07:53:41;4.40;;;1.83;;
826;SDS011;395;48.132;11.608;2023-04-15T07:56:08;5.60;;;1.60;;
826;SDS011;395;48.132;11.608;2023-04-15T07:58:34;3.83;;;1.93;;
826;SDS011;395;48.132;11.608;2023-04-15T08:00:59;5.13;;;1.77;;
826;SDS011;395;48.132;11.608;2023-04-15T08:03:25;3.50;;;2.33;;
826;SDS011;395;48.132;11.608;2023-04-15T08:05:51;2.40;;;1.60;;
826;SDS011;395;48.132;11.608;2023-04-15T08:08:18;4.20;;;2.17;;
826;SDS011;395;48.132;11.608;2023-04-15T08:10:43;4.13;;;2.07;;
826;SDS011;395;48.132;11.608;2023-04-15T08:13:09;4.80;;;2.93;;
826;SDS011;395;48.132;11.608;2023-04-15T08:15:35;2.37;;;2.00;;
826;SDS011;395;48.132;11.608;2023-04-15T08:18:01;3.73;;;2.00;;
826;SDS011;395;48.132;11.608;2023-04-15T08:20:27;3.40;;;1.90;;
826;SDS011;395;48.132;11.608;2023-04-15T08:22:53;4.73;;;1.93;;
826;SDS011;395;48.132;11.608;2023-04-15T08:25:19;4.13;;;2.17;;
826;SDS011;395;48.132;11.608;2023-04-15T08:27:45;3.13;;;2.10;;
826;SDS011;395;48.132;11.608;2023-04-15T08:30:11;2.20;;;2.00;;
826;SDS011;395;48.132;11.608;2023-04-15T08:32:37;5.67;;;2.60;;
826;SDS011;395;48.132;11.608;2023-04-15T08:35:03;2.90;;;2.20;;
826;SDS011;395;48.132;11.608;2023-04-15T08:37:29;2.20;;;2.00;;
826;SDS011;395;48.132;11.608;2023-04-15T08:39:55;3.77;;;2.57;;
826;SDS011;395;48.132;11.608;2023-04-15T08:42:31;4.83;;;2.10;;
826;SDS011;395;48.132;11.608;2023-04-15T08:45:05;3.53;;;2.37;;
826;SDS011;395;48.132;11.608;2023-04-15T08:47:34;4.00;;;1.90;;
826;SDS011;395;48.132;11.608;2023-04-15T08:50:02;4.27;;;1.90;;
826;SDS011;395;48.132;11.608;2023-04-15T08:52:29;5.00;;;2.10;;
826;SDS011;395;48.132;11.608;2023-04-15T08:54:56;2.97;;;1.93;;
826;SDS011;395;48.132;11.608;2023-04-15T08:57:25;2.53;;;2.00;;
826;SDS011;395;48.132;11.608;2023-04-15T08:59:53;4.80;;;2.30;;
826;SDS011;395;48.132;11.608;2023-04-15T09:02:20;4.00;;;2.10;;
826;SDS011;395;48.132;11.608;2023-04-15T09:04:47;3.50;;;2.40;;
826;SDS011;395;48.132;11.608;2023-04-15T09:07:13;2.40;;;2.20;;
826;SDS011;395;48.132;11.608;2023-04-15T09:09:39;3.53;;;2.37;;
826;SDS011;395;48.132;11.608;2023-04-15T09:12:06;3.53;;;2.60;;
826;SDS011;395;48.132;11.608;2023-04-15T09:14:32;3.97;;;2.40;;
826;SDS011;395;48.132;11.608;2023-04-15T09:16:59;4.80;;;2.23;;
826;SDS011;395;48.132;11.608;2023-04-15T09:19:28;3.83;;;2.33;;
826;SDS011;395;48.132;11.608;2023-04-15T09:21:56;2.53;;;2.00;;
826;SDS011;395;48.132;11.608;2023-04-15T09:24:23;3.57;;;2.10;;
826;SDS011;395;48.132;11.608;2023-04-15T09:26:53;2.60;;;2.13;;
826;SDS011;395;48.132;11.608;2023-04-15T09:29:24;4.33;;;2.30;;
826;SDS011;395;48.132;11.608;2023-04-15T09:31:50;5.60;;;3.00;;
826;SDS011;395;48.132;11.608;2023-04-15T09:34:17;3.60;;;2.70;;
826;SDS011;395;48.132;11.608;2023-04-15T09:39:11;3.23;;;2.93;;
826;SDS011;395;48.132;11.608;2023-04-15T09:41:38;3.23;;;2.57;;
826;SDS011;395;48.132;11.608;2023-04-15T09:44:05;4.23;;;2.63;;
826;SDS011;395;48.132;11.608;2023-04-15T09:46:43;4.47;;;2.90;;
826;SDS011;395;48.132;11.608;2023-04-15T09:49:10;4.53;;;3.00;;
826;SDS011;395;48.132;11.608;2023-04-15T09:51:37;4.17;;;3.50;;
826;SDS011;395;48.132;11.608;2023-04-15T09:54:03;5.73;;;3.20;;
826;SDS011;395;48.132;11.608;2023-04-15T09:56:35;3.27;;;2.97;;
826;SDS011;395;48.132;11.608;2023-04-15T09:59:03;3.83;;;2.97;;
826;SDS011;395;48.132;11.608;2023-04-15T10:01:30;4.50;;;3.53;;
826;SDS011;395;48.132;11.608;2023-04-15T10:03:56;5.13;;;3.47;;
826;SDS011;395;48.132;11.608;2023-04-15T10:06:22;4.40;;;3.23;;
826;SDS011;395;48.132;11.608;2023-04-15T10:08:51;5.33;;;3.97;;
826;SDS011;395;48.132;11.608;2023-04-15T10:11:17;4.83;;;3.70;;
826;SDS011;395;48.132;11.608;2023-04-15T10:13:46;5.97;;;3.50;;
826;SDS011;395;48.132;11.608;2023-04-15T10:16:14;5.70;;;4.07;;
826;SDS011;395;48.132;11.608;2023-04-15T10:18:43;8.03;;;4.17;;
826;SDS011;395;48.132;11.608;2023-04-15T10:21:10;5.03;;;3.83;;
826;SDS011;395;48.132;11.608;2023-04-15T10:23:38;5.80;;;3.40;;
826;SDS011;395;48.132;11.608;2023-04-15T10:26:04;4.30;;;3.50;;
826;SDS011;395;48.132;11.608;2023-04-15T10:28:30;5.60;;;3.80;;
826;SDS011;395;48.132;11.608;2023-04-15T10:30:56;4.50;;;3.77;;
826;SDS011;395;48.132;11.608;2023-04-15T10:33:24;5.07;;;3.40;;
826;SDS011;395;48.132;11.608;2023-04-15T10:35:50;5.53;;;3.83;;
826;SDS011;395;48.132;11.608;2023-04-15T10:41:13;4.20;;;3.80;;
826;SDS011;395;48.132;11.608;2023-04-15T10:44:01;4.40;;;3.80;;
826;SDS011;395;48.132;11.608;2023-04-15T10:46:45;4.37;;;4.00;;
826;SDS011;395;48.132;11.608;2023-04-15T10:49:23;5.60;;;4.13;;
826;SDS011;395;48.132;11.608;2023-04-15T10:51:50;6.20;;;5.17;;
826;SDS011;395;48.132;11.608;2023-04-15T11:00:17;5.03;;;3.83;;
826;SDS011;395;48.132;11.608;2023-04-15T11:02:40;6.53;;;3.80;;
826;SDS011;395;48.132;11.608;2023-04-15T11:05:08;4.70;;;3.70;;
826;SDS011;395;48.132;11.608;2023-04-15T11:10:01;5.20;;;4.23;;
826;SDS011;395;48.132;11.608;2023-04-15T11:12:34;4.00;;;3.60;;
826;SDS011;395;48.132;11.608;2023-04-15T11:17:50;5.30;;;4.57;;
826;SDS011;395;48.132;11.608;2023-04-15T11:20:16;7.90;;;5.53;;
826;SDS011;395;48.132;11.608;2023-04-15T11:22:49;4.93;;;3.90;;
826;SDS011;395;48.132;11.608;2023-04-15T11:25:25;5.23;;;4.20;;
826;SDS011;395;48.132;11.608;2023-04-15T11:27:55;6.80;;;4.77;;
826;SDS011;395;48.132;11.608;2023-04-15T11:30:25;4.87;;;4.37;;
826;SDS011;395;48.132;11.608;2023-04-15T11:33:00;5.30;;;4.30;;
826;SDS011;395;48.132;11.608;2023-04-15T11:35:27;5.67;;;4.60;;
826;SDS011;395;48.132;11.608;2023-04-15T11:37:53;4.90;;;4.40;;
826;SDS011;395;48.132;11.608;2023-04-15T11:40:25;5.83;;;4.70;;
826;SDS011;395;48.132;11.608;2023-04-15T11:48:27;8.17;;;4.27;;
826;SDS011;395;48.132;11.608;2023-04-15T11:50:55;5.40;;;4.90;;
826;SDS011;395;48.132;11.608;2023-04-15T11:53:39;8.00;;;5.33;;
826;SDS011;395;48.132;11.608;2023-04-15T11:56:09;6.07;;;4.90;;
826;SDS011;395;48.132;11.608;2023-04-15T11:58:36;5.63;;;5.07;;
826;SDS011;395;48.132;11.608;2023-04-15T12:01:03;5.40;;;4.90;;
826;SDS011;395;48.132;11.608;2023-04-15T12:03:37;5.40;;;4.77;;
826;SDS011;395;48.132;11.608;2023-04-15T12:13:52;7.47;;;4.80;;
826;SDS011;395;48.132;11.608;2023-04-15T12:16:19;6.37;;;4.93;;
826;SDS011;395;48.132;11.608;2023-04-15T12:18:46;5.60;;;4.50;;
826;SDS011;395;48.132;11.608;2023-04-15T12:21:14;6.50;;;4.70;;
826;SDS011;395;48.132;11.608;2023-04-15T12:23:49;5.57;;;3.97;;
826;SDS011;395;48.132;11.608;2023-04-15T12:26:16;4.23;;;3.83;;
826;SDS011;395;48.132;11.608;2023-04-15T12:28:43;7.80;;;4.33;;
826;SDS011;395;48.132;11.608;2023-04-15T12:31:09;4.43;;;4.03;;
826;SDS011;395;48.132;11.608;2023-04-15T12:33:35;6.40;;;4.70;;
826;SDS011;395;48.132;11.608;2023-04-15T12:36:02;4.63;;;4.20;;
826;SDS011;395;48.132;11.608;2023-04-15T12:38:28;6.50;;;5.10;;
826;SDS011;395;48.132;11.608;2023-04-15T12:40:55;4.80;;;4.27;;
826;SDS011;395;48.132;11.608;2023-04-15T12:43:22;4.43;;;4.03;;
826;SDS011;395;48.132;11.608;2023-04-15T12:45:48;4.83;;;3.70;;
826;SDS011;395;48.132;11.608;2023-04-15T12:48:13;4.27;;;3.87;;
826;SDS011;395;48.132;11.608;2023-04-15T12:50:39;4.70;;;3.67;;
826;SDS011;395;48.132;11.608;2023-04-15T12:53:05;3.73;;;3.07;;
826;SDS011;395;48.132;11.608;2023-04-15T12:55:31;7.17;;;3.00;;
826;SDS011;395;48.132;11.608;2023-04-15T12:57:56;3.50;;;3.20;;
826;SDS011;395;48.132;11.608;2023-04-15T13:00:22;2.90;;;2.60;;
826;SDS011;395;48.132;11.608;2023-04-15T13:02:48;4.83;;;3.53;;
826;SDS011;395;48.132;11.608;2023-04-15T13:05:13;3.40;;;3.10;;
826;SDS011;395;48.132;11.608;2023-04-15T13:07:40;4.93;;;2.70;;
826;SDS011;395;48.132;11.608;2023-04-15T13:10:06;4.77;;;2.97;;
826;SDS011;395;48.132;11.608;2023-04-15T13:12:32;3.70;;;2.90;;
826;SDS011;395;48.132;11.608;2023-04-15T13:15:01;4.30;;;3.33;;
826;SDS011;395;48.132;11.608;2023-04-15T13:17:28;5.77;;;3.00;;
826;SDS011;395;48.132;11.608;2023-04-15T13:19:54;5.27;;;3.00;;
826;SDS011;395;48.132;11.608;2023-04-15T13:22:20;3.77;;;2.83;;
826;SDS011;395;48.132;11.608;2023-04-15T13:24:45;3.70;;;3.17;;
826;SDS011;395;48.132;11.608;2023-04-15T13:27:11;4.40;;;3.47;;
826;SDS011;395;48.132;11.608;2023-04-15T13:29:37;4.00;;;3.10;;
826;SDS011;395;48.132;11.608;2023-04-15T13:32:04;4.77;;;3.33;;
826;SDS011;395;48.132;11.608;2023-04-15T13:34:30;7.17;;;3.60;;
826;SDS011;395;48.132;11.608;2023-04-15T13:36:56;4.03;;;3.30;;
826;SDS011;395;48.132;11.608;2023-04-15T13:39:21;7.10;;;4.50;;
826;SDS011;395;48.132;11.608;2023-04-15T13:41:47;4.70;;;3.40;;
826;SDS011;395;48.132;11.608;2023-04-15T13:44:13;5.03;;;3.90;;
826;SDS011;395;48.132;11.608;2023-04-15T13:46:39;6.50;;;4.03;;
826;SDS011;395;48.132;11.608;2023-04-15T13:49:06;6.43;;;4.30;;
826;SDS011;395;48.132;11.608;2023-04-15T13:51:32;6.37;;;4.30;;
826;SDS011;395;48.132;11.608;2023-04-15T13:54:00;6.23;;;4.60;;
826;SDS011;395;48.132;11.608;2023-04-15T13:56:25;5.17;;;4.03;;
826;SDS011;395;48.132;11.608;2023-04-15T13:58:51;4.47;;;3.97;;
826;SDS011;395;48.132;11.608;2023-04-15T14:01:18;4.20;;;3.80;;
826;SDS011;395;48.132;11.608;2023-04-15T14:03:44;3.90;;;3.60;;
826;SDS011;395;48.132;11.608;2023-04-15T14:06:10;4.10;;;3.30;;
826;SDS011;395;48.132;11.608;2023-04-15T14:08:35;4.80;;;3.00;;
826;SDS011;395;48.132;11.608;2023-04-15T14:11:01;4.73;;;3.30;;
826;SDS011;395;48.132;11.608;2023-04-15T14:13:27;5.37;;;3.70;;
826;SDS011;395;48.132;11.608;2023-04-15T14:15:52;4.07;;;3.57;;
826;SDS011;395;48.132;11.608;2023-04-15T14:18:18;3.90;;;3.50;;
826;SDS011;395;48.132;11.608;2023-04-15T14:20:44;6.90;;;3.47;;
826;SDS011;395;48.132;11.608;2023-04-15T14:23:10;3.40;;;3.10;;
826;SDS011;395;48.132;11.608;2023-04-15T14:25:36;3.33;;;2.70;;
826;SDS011;395;48.132;11.608;2023-04-15T14:28:03;3.93;;;2.90;;
826;SDS011;395;48.132;11.608;2023-04-15T14:30:28;4.63;;;2.97;;
826;SDS011;395;48.132;11.608;2023-04-15T14:32:54;3.73;;;3.20;;
826;SDS011;395;48.132;11.608;2023-04-15T14:35:20;3.63;;;2.80;;
826;SDS011;395;48.132;11.608;2023-04-15T14:37:46;6.20;;;2.90;;
826;SDS011;395;48.132;11.608;2023-04-15T14:40:11;4.57;;;3.37;;
826;SDS011;395;48.132;11.608;2023-04-15T14:42:37;3.23;;;2.93;;
826;SDS011;395;48.132;11.608;2023-04-15T14:45:03;3.67;;;3.20;;
826;SDS011;395;48.132;11.608;2023-04-15T14:47:28;3.93;;;3.07;;
826;SDS011;395;48.132;11.608;2023-04-15T14:49:55;4.70;;;3.10;;
826;SDS011;395;48.132;11.608;2023-04-15T14:52:20;5.87;;;3.50;;
826;SDS011;395;48.132;11.608;2023-04-15T14:54:46;3.50;;;3.20;;
826;SDS011;395;48.132;11.608;2023-04-15T14:57:12;3.33;;;3.03;;
826;SDS011;395;48.132;11.608;2023-04-15T14:59:37;6.87;;;3.20;;
826;SDS011;395;48.132;11.608;2023-04-15T15:02:03;5.43;;;3.27;;
826;SDS011;395;48.132;11.608;2023-04-15T15:04:29;5.30;;;3.63;;
826;SDS011;395;48.132;11.608;2023-04-15T15:06:57;4.17;;;3.30;;
826;SDS011;395;48.132;11.608;2023-04-15T15:09:22;4.60;;;3.77;;
826;SDS011;395;48.132;11.608;2023-04-15T15:11:49;3.53;;;3.20;;
826;SDS011;395;48.132;11.608;2023-04-15T15:14:15;4.87;;;3.80;;
826;SDS011;395;48.132;11.608;2023-04-15T15:16:41;3.90;;;3.50;;
826;SDS011;395;48.132;11.608;2023-04-15T15:19:06;5.60;;;4.27;;
826;SDS011;395;48.132;11.608;2023-04-15T15:21:33;5.50;;;4.10;;
826;SDS011;395;48.132;11.608;2023-04-15T15:23:58;4.10;;;3.70;;
826;SDS011;395;48.132;11.608;2023-04-15T15:26:24;5.87;;;3.90;;
826;SDS011;395;48.132;11.608;2023-04-15T15:28:52;5.33;;;4.17;;
826;SDS011;395;48.132;11.608;2023-04-15T15:31:17;5.93;;;3.60;;
826;SDS011;395;48.132;11.608;2023-04-15T15:33:43;3.57;;;3.27;;
826;SDS011;395;48.132;11.608;2023-04-15T15:36:09;4.50;;;3.60;;
826;SDS011;395;48.132;11.608;2023-04-15T15:38:35;6.27;;;4.47;;
826;SDS011;395;48.132;11.608;2023-04-15T15:41:00;7.20;;;3.70;;
826;SDS011;395;48.132;11.608;2023-04-15T15:43:26;4.90;;;4.10;;
826;SDS011;395;48.132;11.608;2023-04-15T15:45:52;4.37;;;3.63;;
826;SDS011;395;48.132;11.608;2023-04-15T15:48:19;4.80;;;4.30;;
826;SDS011;395;48.132;11.608;2023-04-15T15:50:46;5.13;;;4.43;;
826;SDS011;395;48.132;11.608;2023-04-15T15:53:12;5.40;;;4.30;;
826;SDS011;395;48.132;11.608;2023-04-15T15:55:42;7.60;;;4.43;;
826;SDS011;395;48.132;11.608;2023-04-15T15:58:07;8.03;;;5.00;;